CheckWX is a tool to help pilots better visualize weather data.  It is not intended as a substitute for an official pre-flight weather briefing.

07:46:58 UTC

KMOP METAR
Mount Pleasant Municipal Airport
Mount Pleasant, Michigan, USA
Current

12 mins ago

KMOP 230735Z AUTO 21006KT 10SM CLR 03/M03 A3000 RMK AO2 T00321033
Observed
Feb-23 @ 07:35 UTC
Wind
  • 210° at 6 KTS
Visibility
10 SM
Flight Rules
VFR
Cloud Levels
  • Clear skies
Temperature
C / 37°F
Dewpoint
-3°C / 27°F
Humidity
65%
Altimeter
30" Hg
Pressure
1015.92 hPa
Previous

32 mins ago

KMOP 230715Z AUTO 21005KT 10SM CLR 03/M03 A3001 RMK AO2 T00321030
Observed
Feb-23 @ 07:15 UTC
Wind
  • 210° at 5 KTS
Visibility
10 SM
Flight Rules
VFR
Cloud Levels
  • Clear skies
Temperature
C / 37°F
Dewpoint
-3°C / 27°F
Humidity
65%
Altimeter
30.01" Hg
Pressure
1016.22 hPa
Previous

52 mins ago

KMOP 230655Z AUTO 22006KT 10SM CLR 03/M03 A3001 RMK AO2 T00321027
Observed
Feb-23 @ 06:55 UTC
Wind
  • 220° at 6 KTS
Visibility
10 SM
Flight Rules
VFR
Cloud Levels
  • Clear skies
Temperature
C / 37°F
Dewpoint
-3°C / 27°F
Humidity
65%
Altimeter
30.01" Hg
Pressure
1016.22 hPa